Time,TemperatureF,DewpointF,PressureIn,WindDirection,WindDirectionDegrees,WindSpeedMPH,WindSpeedGustMPH,Humidity,HourlyPrecipIn,Conditions,Clouds,dailyrainin,SolarRadiationWatts/m^2,SoftwareType,DateUTC
2013-06-09 00:03:00,64.0,60.0,-100.00,WSW,252,0.0,4.0,87,0.00,,,0.11,0.000000,,2013-06-09 04:03:00,
2013-06-09 00:11:00,61.0,57.0,-100.00,North,352,1.0,3.0,88,0.00,,,0.10,0.000000,,2013-06-09 04:11:00,
2013-06-09 00:33:00,61.0,57.0,-100.00,North,352,1.0,3.0,88,0.00,,,0.10,0.000000,,2013-06-09 04:33:00,
2013-06-09 00:43:00,61.0,57.0,-100.00,North,352,1.0,3.0,88,0.00,,,0.10,0.000000,,2013-06-09 04:43:00,
2013-06-09 00:53:00,61.0,57.0,-100.00,North,352,1.0,3.0,88,0.00,,,0.10,0.000000,,2013-06-09 04:53:00,
2013-06-09 01:02:00,61.0,57.0,-100.00,North,352,1.0,3.0,88,0.00,,,0.10,0.000000,,2013-06-09 05:02:00,
2013-06-09 01:11:00,59.0,57.0,-100.00,NNW,344,0.0,2.0,92,0.00,,,0.09,0.000000,,2013-06-09 05:11:00,
2013-06-09 01:32:00,59.0,57.0,-100.00,NNW,344,0.0,2.0,92,0.00,,,0.09,0.000000,,2013-06-09 05:32:00,
2013-06-09 01:42:00,59.0,57.0,-100.00,NNW,344,0.0,2.0,92,0.00,,,0.09,0.000000,,2013-06-09 05:42:00,
2013-06-09 01:52:00,59.0,57.0,-100.00,NNW,344,0.0,2.0,92,0.00,,,0.09,0.000000,,2013-06-09 05:52:00,
2013-06-09 02:02:00,59.0,57.0,-100.00,NNW,344,0.0,2.0,92,0.00,,,0.09,0.000000,,2013-06-09 06:02:00,
2013-06-09 02:11:00,58.0,57.0,-100.00,NW,313,1.0,2.0,95,0.00,,,0.08,0.000000,,2013-06-09 06:11:00,
2013-06-09 02:32:00,58.0,57.0,-100.00,NW,313,1.0,2.0,95,0.00,,,0.08,0.000000,,2013-06-09 06:32:00,
2013-06-09 02:42:00,58.0,57.0,-100.00,NW,313,1.0,2.0,95,0.00,,,0.08,0.000000,,2013-06-09 06:42:00,
2013-06-09 02:52:00,58.0,57.0,-100.00,NW,313,1.0,2.0,95,0.00,,,0.08,0.000000,,2013-06-09 06:52:00,
2013-06-09 03:02:00,58.0,57.0,-100.00,NW,313,1.0,2.0,95,0.00,,,0.08,0.000000,,2013-06-09 07:02:00,
2013-06-09 03:11:00,58.0,57.0,-100.00,South,186,0.0,2.0,97,0.00,,,0.07,0.000000,,2013-06-09 07:11:00,
2013-06-09 03:32:00,58.0,57.0,-100.00,South,186,0.0,2.0,97,0.00,,,0.07,0.000000,,2013-06-09 07:32:00,
2013-06-09 03:42:00,58.0,57.0,-100.00,South,186,0.0,2.0,97,0.00,,,0.07,0.000000,,2013-06-09 07:42:00,
2013-06-09 03:53:00,58.0,57.0,-100.00,South,186,0.0,2.0,97,0.00,,,0.07,0.000000,,2013-06-09 07:53:00,
2013-06-09 04:02:00,58.0,57.0,-100.00,South,186,0.0,2.0,97,0.00,,,0.07,0.000000,,2013-06-09 08:02:00,
2013-06-09 04:11:00,58.0,57.0,-100.00,WNW,283,0.0,1.0,98,0.00,,,0.06,0.000000,,2013-06-09 08:11:00,
2013-06-09 04:32:00,58.0,57.0,-100.00,WNW,283,0.0,1.0,98,0.00,,,0.06,0.000000,,2013-06-09 08:32:00,
2013-06-09 04:42:00,58.0,57.0,-100.00,WNW,283,0.0,1.0,98,0.00,,,0.06,0.000000,,2013-06-09 08:42:00,
2013-06-09 04:53:00,58.0,57.0,-100.00,WNW,283,0.0,1.0,98,0.00,,,0.06,0.000000,,2013-06-09 08:53:00,
2013-06-09 05:02:00,58.0,57.0,-100.00,WNW,283,0.0,1.0,98,0.00,,,0.06,0.000000,,2013-06-09 09:02:00,
2013-06-09 05:11:00,58.0,57.0,-100.00,WNW,300,0.0,2.0,98,0.00,,,0.05,0.000000,,2013-06-09 09:11:00,
2013-06-09 05:33:00,58.0,57.0,-100.00,WNW,300,0.0,2.0,98,0.00,,,0.05,0.000000,,2013-06-09 09:33:00,
2013-06-09 05:43:00,58.0,57.0,-100.00,WNW,300,0.0,2.0,98,0.00,,,0.05,0.000000,,2013-06-09 09:43:00,
2013-06-09 05:53:00,58.0,57.0,-100.00,WNW,300,0.0,2.0,98,0.00,,,0.05,0.000000,,2013-06-09 09:53:00,
2013-06-09 06:03:00,58.0,57.0,-100.00,WNW,300,0.0,2.0,98,0.00,,,0.05,0.000000,,2013-06-09 10:03:00,
2013-06-09 06:11:00,57.0,57.0,-100.00,NW,310,1.0,2.0,99,0.00,,,0.04,0.000000,,2013-06-09 10:11:00,
2013-06-09 06:32:00,57.0,57.0,-100.00,NW,310,1.0,2.0,99,0.00,,,0.04,0.000000,,2013-06-09 10:32:00,
2013-06-09 06:43:00,57.0,57.0,-100.00,NW,310,1.0,2.0,99,0.00,,,0.04,0.000000,,2013-06-09 10:43:00,
2013-06-09 06:52:00,57.0,57.0,-100.00,NW,310,1.0,2.0,99,0.00,,,0.04,0.000000,,2013-06-09 10:52:00,
2013-06-09 07:02:00,57.0,57.0,-100.00,NW,310,1.0,2.0,99,0.00,,,0.04,0.000000,,2013-06-09 11:02:00,
2013-06-09 07:11:00,59.0,59.0,-100.00,WSW,250,1.0,2.0,99,0.00,,,0.03,24.000000,,2013-06-09 11:11:00,
2013-06-09 07:32:00,59.0,59.0,-100.00,WSW,250,1.0,2.0,99,0.00,,,0.03,24.000000,,2013-06-09 11:32:00,
2013-06-09 07:42:00,59.0,59.0,-100.00,WSW,250,1.0,2.0,99,0.00,,,0.03,24.000000,,2013-06-09 11:42:00,
2013-06-09 07:53:00,59.0,59.0,-100.00,WSW,250,1.0,2.0,99,0.00,,,0.03,24.000000,,2013-06-09 11:53:00,
2013-06-09 08:03:00,59.0,59.0,-100.00,WSW,250,1.0,2.0,99,0.00,,,0.03,24.000000,,2013-06-09 12:03:00,
2013-06-09 08:11:00,62.0,62.0,-100.00,WSW,253,1.0,2.0,99,0.00,,,0.02,104.000000,,2013-06-09 12:11:00,
2013-06-09 08:32:00,62.0,62.0,-100.00,WSW,253,1.0,2.0,99,0.00,,,0.02,104.000000,,2013-06-09 12:32:00,
2013-06-09 08:42:00,62.0,62.0,-100.00,WSW,253,1.0,2.0,99,0.00,,,0.02,104.000000,,2013-06-09 12:42:00,
2013-06-09 08:53:00,62.0,62.0,-100.00,WSW,253,1.0,2.0,99,0.00,,,0.02,104.000000,,2013-06-09 12:53:00,
2013-06-09 09:02:00,62.0,62.0,-100.00,WSW,253,1.0,2.0,99,0.00,,,0.02,104.000000,,2013-06-09 13:02:00,
2013-06-09 09:11:00,71.0,65.0,-100.00,WSW,253,4.0,5.0,80,0.00,,,0.02,410.000000,,2013-06-09 13:11:00,
2013-06-09 09:32:00,71.0,65.0,-100.00,WSW,253,4.0,5.0,80,0.00,,,0.02,410.000000,,2013-06-09 13:32:00,
2013-06-09 09:42:00,71.0,65.0,-100.00,WSW,253,4.0,5.0,80,0.00,,,0.02,410.000000,,2013-06-09 13:42:00,
2013-06-09 09:52:00,71.0,65.0,-100.00,WSW,253,4.0,5.0,80,0.00,,,0.02,410.000000,,2013-06-09 13:52:00,
2013-06-09 10:02:00,71.0,65.0,-100.00,WSW,253,4.0,5.0,80,0.00,,,0.02,410.000000,,2013-06-09 14:02:00,
2013-06-09 10:11:00,74.0,65.0,-100.00,WSW,258,4.0,8.0,73,0.00,,,0.01,532.000000,,2013-06-09 14:11:00,
2013-06-09 10:32:00,74.0,65.0,-100.00,WSW,258,4.0,8.0,73,0.00,,,0.01,532.000000,,2013-06-09 14:32:00,
2013-06-09 10:43:00,74.0,65.0,-100.00,WSW,258,4.0,8.0,73,0.00,,,0.01,532.000000,,2013-06-09 14:43:00,
2013-06-09 10:52:00,74.0,65.0,-100.00,WSW,258,4.0,8.0,73,0.00,,,0.01,532.000000,,2013-06-09 14:52:00,
2013-06-09 11:02:00,74.0,65.0,-100.00,WSW,258,4.0,8.0,73,0.00,,,0.01,532.000000,,2013-06-09 15:02:00,
2013-06-09 11:11:00,76.0,62.0,-100.00,West,270,4.0,9.0,62,0.00,,,0.00,701.000000,,2013-06-09 15:11:00,
2013-06-09 11:33:00,76.0,62.0,-100.00,West,270,4.0,9.0,62,0.00,,,0.00,701.000000,,2013-06-09 15:33:00,
2013-06-09 11:44:00,76.0,62.0,-100.00,West,270,4.0,9.0,62,0.00,,,0.00,701.000000,,2013-06-09 15:44:00,
2013-06-09 11:53:00,76.0,62.0,-100.00,West,270,4.0,9.0,62,0.00,,,0.00,701.000000,,2013-06-09 15:53:00,
2013-06-09 12:03:00,76.0,62.0,-100.00,West,270,4.0,9.0,62,0.00,,,0.00,701.000000,,2013-06-09 16:03:00,
2013-06-09 12:11:00,77.0,61.0,-100.00,NW,305,5.0,11.0,57,0.00,,,0.00,808.000000,,2013-06-09 16:11:00,
2013-06-09 12:33:00,77.0,61.0,-100.00,NW,305,5.0,11.0,57,0.00,,,0.00,808.000000,,2013-06-09 16:33:00,
2013-06-09 12:43:00,77.0,61.0,-100.00,NW,305,5.0,11.0,57,0.00,,,0.00,808.000000,,2013-06-09 16:43:00,
2013-06-09 12:53:00,77.0,61.0,-100.00,NW,305,5.0,11.0,57,0.00,,,0.00,808.000000,,2013-06-09 16:53:00,
2013-06-09 13:03:00,77.0,61.0,-100.00,NW,305,5.0,11.0,57,0.00,,,0.00,808.000000,,2013-06-09 17:03:00,
2013-06-09 13:11:00,79.0,62.0,-100.00,NNW,330,3.0,11.0,57,0.00,,,0.00,707.000000,,2013-06-09 17:11:00,
2013-06-09 13:32:00,79.0,62.0,-100.00,NNW,330,3.0,11.0,57,0.00,,,0.00,707.000000,,2013-06-09 17:32:00,
2013-06-09 13:42:00,79.0,62.0,-100.00,NNW,330,3.0,11.0,57,0.00,,,0.00,707.000000,,2013-06-09 17:42:00,
2013-06-09 13:52:00,79.0,62.0,-100.00,NNW,330,3.0,11.0,57,0.00,,,0.00,707.000000,,2013-06-09 17:52:00,
2013-06-09 14:02:00,79.0,62.0,-100.00,NNW,330,3.0,11.0,57,0.00,,,0.00,707.000000,,2013-06-09 18:02:00,
2013-06-09 14:11:00,80.0,61.0,-100.00,West,266,4.0,10.0,53,0.00,,,0.00,841.000000,,2013-06-09 18:11:00,
2013-06-09 14:33:00,80.0,61.0,-100.00,West,266,4.0,10.0,53,0.00,,,0.00,841.000000,,2013-06-09 18:33:00,
2013-06-09 14:42:00,80.0,61.0,-100.00,West,266,4.0,10.0,53,0.00,,,0.00,841.000000,,2013-06-09 18:42:00,
2013-06-09 14:52:00,80.0,61.0,-100.00,West,266,4.0,10.0,53,0.00,,,0.00,841.000000,,2013-06-09 18:52:00,
2013-06-09 15:02:00,80.0,61.0,-100.00,West,266,4.0,10.0,53,0.00,,,0.00,841.000000,,2013-06-09 19:02:00,
2013-06-09 15:11:00,80.0,62.0,-100.00,West,281,5.0,12.0,54,0.00,,,0.00,949.000000,,2013-06-09 19:11:00,
2013-06-09 15:32:00,80.0,62.0,-100.00,West,281,5.0,12.0,54,0.00,,,0.00,949.000000,,2013-06-09 19:32:00,
2013-06-09 15:43:00,80.0,62.0,-100.00,West,281,5.0,12.0,54,0.00,,,0.00,949.000000,,2013-06-09 19:43:00,
2013-06-09 15:52:00,80.0,62.0,-100.00,West,281,5.0,12.0,54,0.00,,,0.00,949.000000,,2013-06-09 19:52:00,
2013-06-09 16:03:00,80.0,62.0,-100.00,West,281,5.0,12.0,54,0.00,,,0.00,949.000000,,2013-06-09 20:03:00,
2013-06-09 16:11:00,80.0,61.0,-100.00,West,263,5.0,11.0,53,0.00,,,0.00,660.000000,,2013-06-09 20:11:00,
2013-06-09 16:32:00,80.0,61.0,-100.00,West,263,5.0,11.0,53,0.00,,,0.00,660.000000,,2013-06-09 20:32:00,
2013-06-09 16:42:00,80.0,61.0,-100.00,West,263,5.0,11.0,53,0.00,,,0.00,660.000000,,2013-06-09 20:42:00,
2013-06-09 16:52:00,80.0,61.0,-100.00,West,263,5.0,11.0,53,0.00,,,0.00,660.000000,,2013-06-09 20:52:00,
2013-06-09 17:03:00,80.0,61.0,-100.00,West,263,5.0,11.0,53,0.00,,,0.00,660.000000,,2013-06-09 21:03:00,
2013-06-09 17:11:00,74.0,60.0,-100.00,SSW,210,0.0,9.0,62,0.00,,,0.00,233.000000,,2013-06-09 21:11:00,
2013-06-09 17:33:00,74.0,60.0,-100.00,SSW,210,0.0,9.0,62,0.00,,,0.00,233.000000,,2013-06-09 21:33:00,
2013-06-09 17:44:00,74.0,60.0,-100.00,SSW,210,0.0,9.0,62,0.00,,,0.00,233.000000,,2013-06-09 21:44:00,
2013-06-09 17:53:00,74.0,60.0,-100.00,SSW,210,0.0,9.0,62,0.00,,,0.00,233.000000,,2013-06-09 21:53:00,
2013-06-09 18:02:00,74.0,60.0,-100.00,SSW,210,0.0,9.0,62,0.00,,,0.00,233.000000,,2013-06-09 22:02:00,
2013-06-09 18:11:00,71.0,63.0,-100.00,West,275,5.0,12.0,75,0.01,,,0.01,74.000000,,2013-06-09 22:11:00,
2013-06-09 18:33:00,71.0,63.0,-100.00,West,275,5.0,12.0,75,0.01,,,0.01,74.000000,,2013-06-09 22:33:00,
2013-06-09 18:42:00,71.0,63.0,-100.00,West,275,5.0,12.0,75,0.01,,,0.01,74.000000,,2013-06-09 22:42:00,
2013-06-09 18:52:00,71.0,63.0,-100.00,West,275,5.0,12.0,75,0.01,,,0.01,74.000000,,2013-06-09 22:52:00,
2013-06-09 19:02:00,71.0,63.0,-100.00,West,275,5.0,12.0,75,0.01,,,0.01,74.000000,,2013-06-09 23:02:00,
2013-06-09 19:11:00,67.0,63.0,-100.00,WNW,282,2.0,6.0,88,0.05,,,0.06,22.000000,,2013-06-09 23:11:00,
2013-06-09 19:32:00,67.0,63.0,-100.00,WNW,282,2.0,6.0,88,0.05,,,0.06,22.000000,,2013-06-09 23:32:00,
2013-06-09 19:43:00,67.0,63.0,-100.00,WNW,282,2.0,6.0,88,0.05,,,0.06,22.000000,,2013-06-09 23:43:00,
2013-06-09 19:52:00,67.0,63.0,-100.00,WNW,282,2.0,6.0,88,0.05,,,0.06,22.000000,,2013-06-09 23:52:00,
2013-06-09 20:02:00,67.0,63.0,-100.00,WNW,282,2.0,6.0,88,0.05,,,0.06,22.000000,,2013-06-10 00:02:00,
2013-06-09 20:11:00,65.0,64.0,-100.00,West,263,3.0,9.0,95,0.34,,,0.40,4.000000,,2013-06-10 00:11:00,
2013-06-09 20:32:00,65.0,64.0,-100.00,West,263,3.0,9.0,95,0.34,,,0.40,4.000000,,2013-06-10 00:32:00,
2013-06-09 20:42:00,65.0,64.0,-100.00,West,263,3.0,9.0,95,0.34,,,0.40,4.000000,,2013-06-10 00:42:00,
2013-06-09 20:52:00,65.0,64.0,-100.00,West,263,3.0,9.0,95,0.34,,,0.40,4.000000,,2013-06-10 00:52:00,
2013-06-09 21:03:00,65.0,64.0,-100.00,West,263,3.0,9.0,95,0.34,,,0.40,4.000000,,2013-06-10 01:03:00,
2013-06-09 21:11:00,65.0,64.0,-100.00,West,260,2.0,7.0,97,0.06,,,0.46,6.000000,,2013-06-10 01:11:00,
2013-06-09 21:32:00,65.0,64.0,-100.00,West,260,2.0,7.0,97,0.06,,,0.46,6.000000,,2013-06-10 01:32:00,
2013-06-09 21:43:00,65.0,64.0,-100.00,West,260,2.0,7.0,97,0.06,,,0.46,6.000000,,2013-06-10 01:43:00,
2013-06-09 21:52:00,65.0,64.0,-100.00,West,260,2.0,7.0,97,0.06,,,0.46,6.000000,,2013-06-10 01:52:00,
2013-06-09 22:02:00,65.0,64.0,-100.00,West,260,2.0,7.0,97,0.06,,,0.46,6.000000,,2013-06-10 02:02:00,
2013-06-09 22:11:00,65.0,64.0,-100.00,West,262,3.0,5.0,97,0.04,,,0.50,0.000000,,2013-06-10 02:11:00,
2013-06-09 22:32:00,65.0,64.0,-100.00,West,262,3.0,5.0,97,0.04,,,0.50,0.000000,,2013-06-10 02:32:00,
2013-06-09 22:42:00,65.0,64.0,-100.00,West,262,3.0,5.0,97,0.04,,,0.50,0.000000,,2013-06-10 02:42:00,
2013-06-09 22:52:00,65.0,64.0,-100.00,West,262,3.0,5.0,97,0.04,,,0.50,0.000000,,2013-06-10 02:52:00,
2013-06-09 23:02:00,65.0,64.0,-100.00,West,262,3.0,5.0,97,0.04,,,0.50,0.000000,,2013-06-10 03:02:00,
2013-06-09 23:11:00,65.0,64.0,-100.00,West,264,3.0,9.0,97,0.02,,,0.52,0.000000,,2013-06-10 03:11:00,
2013-06-09 23:33:00,65.0,64.0,-100.00,West,264,3.0,9.0,97,0.02,,,0.52,0.000000,,2013-06-10 03:33:00,
2013-06-09 23:43:00,65.0,64.0,-100.00,West,264,3.0,9.0,97,0.02,,,0.52,0.000000,,2013-06-10 03:43:00,
2013-06-09 23:53:00,65.0,64.0,-100.00,West,264,3.0,9.0,97,0.02,,,0.52,0.000000,,2013-06-10 03:53:00,